sensor_id;sensor_type;location;lat;lon;timestamp;temperature;humidity
22682;DHT22;11508;50.856;4.380;2023-03-09T00:01:26;5.60;99.90
22682;DHT22;11508;50.856;4.380;2023-03-09T00:03:53;5.60;99.90
22682;DHT22;11508;50.856;4.380;2023-03-09T00:06:19;5.20;99.90
22682;DHT22;11508;50.856;4.380;2023-03-09T00:08:45;4.90;99.90
22682;DHT22;11508;50.856;4.380;2023-03-09T00:11:13;4.40;99.90
22682;DHT22;11508;50.856;4.380;2023-03-09T00:13:39;4.30;99.90
22682;DHT22;11508;50.856;4.380;2023-03-09T00:16:13;4.40;99.90
22682;DHT22;11508;50.856;4.380;2023-03-09T00:18:39;4.50;99.90
22682;DHT22;11508;50.856;4.380;2023-03-09T00:21:05;5.00;99.90
22682;DHT22;11508;50.856;4.380;2023-03-09T00:23:32;5.10;99.90
22682;DHT22;11508;50.856;4.380;2023-03-09T00:26:05;5.00;99.90
22682;DHT22;11508;50.856;4.380;2023-03-09T00:28:31;4.80;99.90
22682;DHT22;11508;50.856;4.380;2023-03-09T00:31:06;4.50;99.90
22682;DHT22;11508;50.856;4.380;2023-03-09T00:33:33;4.30;99.90
22682;DHT22;11508;50.856;4.380;2023-03-09T00:35:59;4.40;99.90
22682;DHT22;11508;50.856;4.380;2023-03-09T00:38:25;4.60;99.90
22682;DHT22;11508;50.856;4.380;2023-03-09T00:40:50;5.20;99.90
22682;DHT22;11508;50.856;4.380;2023-03-09T00:43:16;5.60;99.90
22682;DHT22;11508;50.856;4.380;2023-03-09T00:45:42;5.80;99.90
22682;DHT22;11508;50.856;4.380;2023-03-09T00:48:07;6.00;99.90
22682;DHT22;11508;50.856;4.380;2023-03-09T00:50:33;5.90;99.90
22682;DHT22;11508;50.856;4.380;2023-03-09T00:53:00;5.80;99.90
22682;DHT22;11508;50.856;4.380;2023-03-09T00:55:25;5.80;99.90
22682;DHT22;11508;50.856;4.380;2023-03-09T00:57:51;5.60;99.90
22682;DHT22;11508;50.856;4.380;2023-03-09T01:00:17;5.60;99.90
22682;DHT22;11508;50.856;4.380;2023-03-09T01:02:43;5.50;99.90
22682;DHT22;11508;50.856;4.380;2023-03-09T01:05:09;5.50;99.90
22682;DHT22;11508;50.856;4.380;2023-03-09T01:07:35;5.40;99.90
22682;DHT22;11508;50.856;4.380;2023-03-09T01:10:02;5.30;99.90
22682;DHT22;11508;50.856;4.380;2023-03-09T01:12:27;5.30;99.90
22682;DHT22;11508;50.856;4.380;2023-03-09T01:14:54;5.20;99.90
22682;DHT22;11508;50.856;4.380;2023-03-09T01:17:20;5.20;99.90
22682;DHT22;11508;50.856;4.380;2023-03-09T01:19:46;5.30;99.90
22682;DHT22;11508;50.856;4.380;2023-03-09T01:22:12;5.20;99.90
22682;DHT22;11508;50.856;4.380;2023-03-09T01:24:38;5.00;99.90
22682;DHT22;11508;50.856;4.380;2023-03-09T01:27:03;4.80;99.90
22682;DHT22;11508;50.856;4.380;2023-03-09T01:29:30;4.90;99.90
22682;DHT22;11508;50.856;4.380;2023-03-09T01:31:55;5.00;99.90
22682;DHT22;11508;50.856;4.380;2023-03-09T01:34:21;5.20;99.90
22682;DHT22;11508;50.856;4.380;2023-03-09T01:36:47;5.40;99.90
22682;DHT22;11508;50.856;4.380;2023-03-09T01:39:12;5.20;99.90
22682;DHT22;11508;50.856;4.380;2023-03-09T01:41:38;5.20;99.90
22682;DHT22;11508;50.856;4.380;2023-03-09T01:44:04;5.40;99.90
22682;DHT22;11508;50.856;4.380;2023-03-09T01:56:53;5.10;99.90
22682;DHT22;11508;50.856;4.380;2023-03-09T01:59:22;5.40;99.90
22682;DHT22;11508;50.856;4.380;2023-03-09T02:01:50;5.50;99.90
22682;DHT22;11508;50.856;4.380;2023-03-09T02:04:22;5.20;99.90
22682;DHT22;11508;50.856;4.380;2023-03-09T02:06:49;5.20;99.90
22682;DHT22;11508;50.856;4.380;2023-03-09T02:09:57;5.00;99.90
22682;DHT22;11508;50.856;4.380;2023-03-09T02:12:25;5.00;99.90
22682;DHT22;11508;50.856;4.380;2023-03-09T02:14:52;5.00;99.90
22682;DHT22;11508;50.856;4.380;2023-03-09T02:17:18;5.00;99.90
22682;DHT22;11508;50.856;4.380;2023-03-09T02:20:11;4.90;99.90
22682;DHT22;11508;50.856;4.380;2023-03-09T02:22:39;4.90;99.90
22682;DHT22;11508;50.856;4.380;2023-03-09T02:27:41;4.90;99.90
22682;DHT22;11508;50.856;4.380;2023-03-09T02:30:08;5.30;99.90
22682;DHT22;11508;50.856;4.380;2023-03-09T02:32:34;5.50;99.90
22682;DHT22;11508;50.856;4.380;2023-03-09T02:35:01;5.50;99.90
22682;DHT22;11508;50.856;4.380;2023-03-09T02:37:34;5.40;99.90
22682;DHT22;11508;50.856;4.380;2023-03-09T02:40:15;5.40;99.90
22682;DHT22;11508;50.856;4.380;2023-03-09T02:42:43;5.50;99.90
22682;DHT22;11508;50.856;4.380;2023-03-09T02:45:11;5.50;99.90
22682;DHT22;11508;50.856;4.380;2023-03-09T02:47:37;5.30;99.90
22682;DHT22;11508;50.856;4.380;2023-03-09T02:50:06;5.40;99.90
22682;DHT22;11508;50.856;4.380;2023-03-09T02:52:32;5.40;99.90
22682;DHT22;11508;50.856;4.380;2023-03-09T02:54:58;5.60;99.90
22682;DHT22;11508;50.856;4.380;2023-03-09T02:57:23;5.60;99.90
22682;DHT22;11508;50.856;4.380;2023-03-09T02:59:49;5.10;99.90
22682;DHT22;11508;50.856;4.380;2023-03-09T03:02:15;4.60;99.90
22682;DHT22;11508;50.856;4.380;2023-03-09T03:04:40;4.70;99.90
22682;DHT22;11508;50.856;4.380;2023-03-09T03:07:07;4.90;99.90
22682;DHT22;11508;50.856;4.380;2023-03-09T03:09:33;5.00;99.90
22682;DHT22;11508;50.856;4.380;2023-03-09T03:11:59;5.20;99.90
22682;DHT22;11508;50.856;4.380;2023-03-09T03:14:24;5.30;99.90
22682;DHT22;11508;50.856;4.380;2023-03-09T03:16:50;5.40;99.90
22682;DHT22;11508;50.856;4.380;2023-03-09T03:19:15;5.20;99.90
22682;DHT22;11508;50.856;4.380;2023-03-09T03:21:41;5.20;99.90
22682;DHT22;11508;50.856;4.380;2023-03-09T03:24:07;5.00;99.90
22682;DHT22;11508;50.856;4.380;2023-03-09T03:26:32;5.00;99.90
22682;DHT22;11508;50.856;4.380;2023-03-09T03:28:58;5.20;99.90
22682;DHT22;11508;50.856;4.380;2023-03-09T03:31:24;5.30;99.90
22682;DHT22;11508;50.856;4.380;2023-03-09T03:33:49;5.30;99.90
22682;DHT22;11508;50.856;4.380;2023-03-09T03:36:16;5.20;99.90
22682;DHT22;11508;50.856;4.380;2023-03-09T03:38:42;5.10;99.90
22682;DHT22;11508;50.856;4.380;2023-03-09T03:41:07;4.60;99.90
22682;DHT22;11508;50.856;4.380;2023-03-09T03:43:33;4.60;99.90
22682;DHT22;11508;50.856;4.380;2023-03-09T03:45:59;4.70;99.90
22682;DHT22;11508;50.856;4.380;2023-03-09T03:48:24;4.60;99.90
22682;DHT22;11508;50.856;4.380;2023-03-09T03:50:50;4.50;99.90
22682;DHT22;11508;50.856;4.380;2023-03-09T03:53:16;4.70;99.90
22682;DHT22;11508;50.856;4.380;2023-03-09T03:55:42;4.70;99.90
22682;DHT22;11508;50.856;4.380;2023-03-09T03:58:07;4.90;99.90
22682;DHT22;11508;50.856;4.380;2023-03-09T04:00:33;5.20;99.90
22682;DHT22;11508;50.856;4.380;2023-03-09T04:02:59;5.40;99.90
22682;DHT22;11508;50.856;4.380;2023-03-09T04:05:24;5.10;99.90
22682;DHT22;11508;50.856;4.380;2023-03-09T04:07:50;5.00;99.90
22682;DHT22;11508;50.856;4.380;2023-03-09T04:10:17;5.00;99.90
22682;DHT22;11508;50.856;4.380;2023-03-09T04:12:43;5.20;99.90
22682;DHT22;11508;50.856;4.380;2023-03-09T04:15:09;5.00;99.90
22682;DHT22;11508;50.856;4.380;2023-03-09T04:17:35;5.00;99.90
22682;DHT22;11508;50.856;4.380;2023-03-09T04:20:00;5.00;99.90
22682;DHT22;11508;50.856;4.380;2023-03-09T04:22:26;4.80;99.90
22682;DHT22;11508;50.856;4.380;2023-03-09T04:24:52;4.90;99.90
22682;DHT22;11508;50.856;4.380;2023-03-09T04:27:17;5.10;99.90
22682;DHT22;11508;50.856;4.380;2023-03-09T04:29:43;5.40;99.90
22682;DHT22;11508;50.856;4.380;2023-03-09T04:32:09;5.40;99.90
22682;DHT22;11508;50.856;4.380;2023-03-09T04:34:34;5.20;99.90
22682;DHT22;11508;50.856;4.380;2023-03-09T04:37:00;5.20;99.90
22682;DHT22;11508;50.856;4.380;2023-03-09T04:39:26;5.20;99.90
22682;DHT22;11508;50.856;4.380;2023-03-09T04:41:51;5.30;99.90
22682;DHT22;11508;50.856;4.380;2023-03-09T04:44:17;5.20;99.90
22682;DHT22;11508;50.856;4.380;2023-03-09T04:46:43;5.20;99.90
22682;DHT22;11508;50.856;4.380;2023-03-09T04:49:08;5.10;99.90
22682;DHT22;11508;50.856;4.380;2023-03-09T04:51:34;5.20;99.90
22682;DHT22;11508;50.856;4.380;2023-03-09T04:53:59;5.10;99.90
22682;DHT22;11508;50.856;4.380;2023-03-09T04:56:25;5.10;99.90
22682;DHT22;11508;50.856;4.380;2023-03-09T04:58:52;5.10;99.90
22682;DHT22;11508;50.856;4.380;2023-03-09T05:01:18;5.20;99.90
22682;DHT22;11508;50.856;4.380;2023-03-09T05:03:43;5.10;99.90
22682;DHT22;11508;50.856;4.380;2023-03-09T05:06:09;4.90;99.90
22682;DHT22;11508;50.856;4.380;2023-03-09T05:08:35;4.80;99.90
22682;DHT22;11508;50.856;4.380;2023-03-09T05:11:00;4.90;99.90
22682;DHT22;11508;50.856;4.380;2023-03-09T05:13:26;5.10;99.90
22682;DHT22;11508;50.856;4.380;2023-03-09T05:15:52;5.00;99.90
22682;DHT22;11508;50.856;4.380;2023-03-09T05:18:18;4.90;99.90
22682;DHT22;11508;50.856;4.380;2023-03-09T05:20:44;4.70;99.90
22682;DHT22;11508;50.856;4.380;2023-03-09T05:23:10;5.00;99.90
22682;DHT22;11508;50.856;4.380;2023-03-09T05:25:37;5.00;99.90
22682;DHT22;11508;50.856;4.380;2023-03-09T05:28:03;5.10;99.90
22682;DHT22;11508;50.856;4.380;2023-03-09T05:30:30;5.30;99.90
22682;DHT22;11508;50.856;4.380;2023-03-09T05:32:56;5.30;99.90
22682;DHT22;11508;50.856;4.380;2023-03-09T05:35:22;5.20;99.90
22682;DHT22;11508;50.856;4.380;2023-03-09T05:37:48;5.20;99.90
22682;DHT22;11508;50.856;4.380;2023-03-09T05:40:14;5.30;99.90
22682;DHT22;11508;50.856;4.380;2023-03-09T05:42:42;5.30;99.90
22682;DHT22;11508;50.856;4.380;2023-03-09T05:45:08;5.00;99.90
22682;DHT22;11508;50.856;4.380;2023-03-09T05:47:35;5.00;99.90
22682;DHT22;11508;50.856;4.380;2023-03-09T05:50:01;5.00;99.90
22682;DHT22;11508;50.856;4.380;2023-03-09T05:52:27;4.90;99.90
22682;DHT22;11508;50.856;4.380;2023-03-09T05:54:52;4.90;99.90
22682;DHT22;11508;50.856;4.380;2023-03-09T05:57:18;5.00;99.90
22682;DHT22;11508;50.856;4.380;2023-03-09T05:59:47;5.30;99.90
22682;DHT22;11508;50.856;4.380;2023-03-09T06:02:12;5.50;99.90
22682;DHT22;11508;50.856;4.380;2023-03-09T06:04:38;5.40;99.90
22682;DHT22;11508;50.856;4.380;2023-03-09T06:07:04;5.50;99.90
22682;DHT22;11508;50.856;4.380;2023-03-09T06:09:30;5.20;99.90
22682;DHT22;11508;50.856;4.380;2023-03-09T06:11:56;5.00;99.90
22682;DHT22;11508;50.856;4.380;2023-03-09T06:14:23;5.20;99.90
22682;DHT22;11508;50.856;4.380;2023-03-09T06:16:48;5.20;99.90
22682;DHT22;11508;50.856;4.380;2023-03-09T06:19:14;4.90;99.90
22682;DHT22;11508;50.856;4.380;2023-03-09T06:21:40;4.90;99.90
22682;DHT22;11508;50.856;4.380;2023-03-09T06:24:06;5.20;99.90
22682;DHT22;11508;50.856;4.380;2023-03-09T06:26:32;5.20;99.90
22682;DHT22;11508;50.856;4.380;2023-03-09T06:28:58;4.90;99.90
22682;DHT22;11508;50.856;4.380;2023-03-09T06:31:23;5.10;99.90
22682;DHT22;11508;50.856;4.380;2023-03-09T06:33:49;5.10;99.90
22682;DHT22;11508;50.856;4.380;2023-03-09T06:36:16;4.90;99.90
22682;DHT22;11508;50.856;4.380;2023-03-09T06:38:42;4.80;99.90
22682;DHT22;11508;50.856;4.380;2023-03-09T06:41:08;4.80;99.90
22682;DHT22;11508;50.856;4.380;2023-03-09T06:43:34;4.80;99.90
22682;DHT22;11508;50.856;4.380;2023-03-09T06:45:59;5.00;99.90
22682;DHT22;11508;50.856;4.380;2023-03-09T06:48:25;5.00;99.90
22682;DHT22;11508;50.856;4.380;2023-03-09T06:50:51;4.90;99.90
22682;DHT22;11508;50.856;4.380;2023-03-09T06:53:17;4.80;99.90
22682;DHT22;11508;50.856;4.380;2023-03-09T06:55:43;4.50;99.90
22682;DHT22;11508;50.856;4.380;2023-03-09T06:58:09;4.50;99.90
22682;DHT22;11508;50.856;4.380;2023-03-09T07:00:35;4.50;99.90
22682;DHT22;11508;50.856;4.380;2023-03-09T07:03:04;4.60;99.90
22682;DHT22;11508;50.856;4.380;2023-03-09T07:05:30;4.70;99.90
22682;DHT22;11508;50.856;4.380;2023-03-09T07:07:55;4.50;99.90
22682;DHT22;11508;50.856;4.380;2023-03-09T07:10:21;4.30;99.90
22682;DHT22;11508;50.856;4.380;2023-03-09T07:12:47;4.50;99.90
22682;DHT22;11508;50.856;4.380;2023-03-09T07:15:14;4.60;99.90
22682;DHT22;11508;50.856;4.380;2023-03-09T07:17:40;4.80;99.90
22682;DHT22;11508;50.856;4.380;2023-03-09T07:20:08;4.90;99.90
22682;DHT22;11508;50.856;4.380;2023-03-09T07:22:34;5.00;99.90
22682;DHT22;11508;50.856;4.380;2023-03-09T07:24:59;4.80;99.90
22682;DHT22;11508;50.856;4.380;2023-03-09T07:27:25;5.00;99.90
22682;DHT22;11508;50.856;4.380;2023-03-09T07:29:51;4.60;99.90
22682;DHT22;11508;50.856;4.380;2023-03-09T07:32:17;4.30;99.90
22682;DHT22;11508;50.856;4.380;2023-03-09T07:34:42;4.40;99.90
22682;DHT22;11508;50.856;4.380;2023-03-09T07:37:08;4.70;99.90
22682;DHT22;11508;50.856;4.380;2023-03-09T07:39:34;5.00;99.90
22682;DHT22;11508;50.856;4.380;2023-03-09T07:42:00;5.20;99.90
22682;DHT22;11508;50.856;4.380;2023-03-09T07:44:27;5.30;99.90
22682;DHT22;11508;50.856;4.380;2023-03-09T07:46:53;5.10;99.90
22682;DHT22;11508;50.856;4.380;2023-03-09T07:49:18;5.20;99.90
22682;DHT22;11508;50.856;4.380;2023-03-09T07:51:44;5.60;99.90
22682;DHT22;11508;50.856;4.380;2023-03-09T07:54:10;5.70;99.90
22682;DHT22;11508;50.856;4.380;2023-03-09T07:56:35;5.90;99.90
22682;DHT22;11508;50.856;4.380;2023-03-09T07:59:01;5.80;99.90
22682;DHT22;11508;50.856;4.380;2023-03-09T08:01:27;5.70;99.90
22682;DHT22;11508;50.856;4.380;2023-03-09T08:03:53;6.00;99.90
22682;DHT22;11508;50.856;4.380;2023-03-09T08:06:19;6.30;99.90
22682;DHT22;11508;50.856;4.380;2023-03-09T08:08:44;6.50;99.90
22682;DHT22;11508;50.856;4.380;2023-03-09T08:11:11;6.60;99.90
22682;DHT22;11508;50.856;4.380;2023-03-09T08:13:37;6.50;99.90
22682;DHT22;11508;50.856;4.380;2023-03-09T08:16:07;6.40;99.90
22682;DHT22;11508;50.856;4.380;2023-03-09T08:18:34;6.50;99.90
22682;DHT22;11508;50.856;4.380;2023-03-09T08:21:06;6.40;99.90
22682;DHT22;11508;50.856;4.380;2023-03-09T08:23:33;6.50;99.90
22682;DHT22;11508;50.856;4.380;2023-03-09T08:26:00;6.50;99.90
22682;DHT22;11508;50.856;4.380;2023-03-09T08:28:26;6.60;99.90
22682;DHT22;11508;50.856;4.380;2023-03-09T08:30:51;6.50;99.90
22682;DHT22;11508;50.856;4.380;2023-03-09T08:33:17;6.40;99.90
22682;DHT22;11508;50.856;4.380;2023-03-09T08:35:43;6.60;99.90
22682;DHT22;11508;50.856;4.380;2023-03-09T08:38:08;6.50;99.90
22682;DHT22;11508;50.856;4.380;2023-03-09T08:40:34;6.20;99.90
22682;DHT22;11508;50.856;4.380;2023-03-09T08:42:59;6.00;99.90
22682;DHT22;11508;50.856;4.380;2023-03-09T08:45:25;5.80;99.90
22682;DHT22;11508;50.856;4.380;2023-03-09T08:47:51;5.60;99.90
22682;DHT22;11508;50.856;4.380;2023-03-09T08:50:16;5.80;99.90
22682;DHT22;11508;50.856;4.380;2023-03-09T08:52:42;6.30;99.90
22682;DHT22;11508;50.856;4.380;2023-03-09T08:55:09;6.50;99.90
22682;DHT22;11508;50.856;4.380;2023-03-09T08:57:35;6.80;99.90
22682;DHT22;11508;50.856;4.380;2023-03-09T09:00:00;7.10;99.90
22682;DHT22;11508;50.856;4.380;2023-03-09T09:02:26;7.20;99.90
22682;DHT22;11508;50.856;4.380;2023-03-09T09:04:52;7.20;99.90
22682;DHT22;11508;50.856;4.380;2023-03-09T09:07:18;7.40;99.90
22682;DHT22;11508;50.856;4.380;2023-03-09T09:09:44;7.50;99.90
22682;DHT22;11508;50.856;4.380;2023-03-09T09:12:10;7.30;99.90
22682;DHT22;11508;50.856;4.380;2023-03-09T09:14:36;6.90;99.90
22682;DHT22;11508;50.856;4.380;2023-03-09T09:17:06;6.80;99.90
22682;DHT22;11508;50.856;4.380;2023-03-09T09:19:37;7.10;99.90
22682;DHT22;11508;50.856;4.380;2023-03-09T09:22:04;7.30;99.90
22682;DHT22;11508;50.856;4.380;2023-03-09T09:24:31;7.50;99.90
22682;DHT22;11508;50.856;4.380;2023-03-09T09:27:04;7.50;99.90
22682;DHT22;11508;50.856;4.380;2023-03-09T09:29:31;7.90;99.90
22682;DHT22;11508;50.856;4.380;2023-03-09T09:31:57;8.00;99.90
22682;DHT22;11508;50.856;4.380;2023-03-09T09:34:23;8.60;99.90
22682;DHT22;11508;50.856;4.380;2023-03-09T09:36:49;8.80;99.90
22682;DHT22;11508;50.856;4.380;2023-03-09T09:39:14;8.80;99.90
22682;DHT22;11508;50.856;4.380;2023-03-09T09:41:44;8.80;99.90
22682;DHT22;11508;50.856;4.380;2023-03-09T09:44:24;8.80;99.90
22682;DHT22;11508;50.856;4.380;2023-03-09T09:46:53;8.70;99.90
22682;DHT22;11508;50.856;4.380;2023-03-09T09:49:23;8.80;99.90
22682;DHT22;11508;50.856;4.380;2023-03-09T09:57:08;8.80;99.90
22682;DHT22;11508;50.856;4.380;2023-03-09T10:00:03;8.70;99.90
22682;DHT22;11508;50.856;4.380;2023-03-09T10:02:56;8.40;99.90
22682;DHT22;11508;50.856;4.380;2023-03-09T10:05:39;8.40;99.90
22682;DHT22;11508;50.856;4.380;2023-03-09T10:10:47;8.10;99.90
22682;DHT22;11508;50.856;4.380;2023-03-09T10:13:18;8.50;99.90
22682;DHT22;11508;50.856;4.380;2023-03-09T10:15:44;8.70;99.90
22682;DHT22;11508;50.856;4.380;2023-03-09T10:18:12;8.80;99.90
22682;DHT22;11508;50.856;4.380;2023-03-09T10:20:45;8.80;99.90
22682;DHT22;11508;50.856;4.380;2023-03-09T10:23:31;8.70;99.90
22682;DHT22;11508;50.856;4.380;2023-03-09T10:28:42;8.70;99.90
22682;DHT22;11508;50.856;4.380;2023-03-09T10:33:48;8.30;99.90
22682;DHT22;11508;50.856;4.380;2023-03-09T10:36:29;8.20;99.90
22682;DHT22;11508;50.856;4.380;2023-03-09T10:38:55;8.40;99.90
22682;DHT22;11508;50.856;4.380;2023-03-09T10:41:22;8.70;99.90
22682;DHT22;11508;50.856;4.380;2023-03-09T10:43:48;9.10;99.90
22682;DHT22;11508;50.856;4.380;2023-03-09T10:46:22;9.20;99.90
22682;DHT22;11508;50.856;4.380;2023-03-09T10:48:50;9.50;99.90
22682;DHT22;11508;50.856;4.380;2023-03-09T10:51:38;9.70;99.90
22682;DHT22;11508;50.856;4.380;2023-03-09T10:54:24;10.00;99.90
22682;DHT22;11508;50.856;4.380;2023-03-09T10:56:50;10.20;99.90
22682;DHT22;11508;50.856;4.380;2023-03-09T10:59:22;10.20;99.90
22682;DHT22;11508;50.856;4.380;2023-03-09T11:01:50;10.50;99.90
22682;DHT22;11508;50.856;4.380;2023-03-09T11:04:36;10.60;99.90
22682;DHT22;11508;50.856;4.380;2023-03-09T11:07:19;10.30;99.90
22682;DHT22;11508;50.856;4.380;2023-03-09T11:09:49;10.10;99.90
22682;DHT22;11508;50.856;4.380;2023-03-09T11:14:55;9.90;99.90
22682;DHT22;11508;50.856;4.380;2023-03-09T11:22:49;10.40;99.90
22682;DHT22;11508;50.856;4.380;2023-03-09T11:28:37;11.00;99.90
22682;DHT22;11508;50.856;4.380;2023-03-09T11:31:14;10.80;99.90
22682;DHT22;11508;50.856;4.380;2023-03-09T11:33:40;11.00;99.90
22682;DHT22;11508;50.856;4.380;2023-03-09T11:36:11;11.10;99.90
22682;DHT22;11508;50.856;4.380;2023-03-09T11:38:40;11.20;99.90
22682;DHT22;11508;50.856;4.380;2023-03-09T11:41:31;10.70;99.90
22682;DHT22;11508;50.856;4.380;2023-03-09T11:44:22;10.70;99.90
22682;DHT22;11508;50.856;4.380;2023-03-09T11:46:49;10.50;99.90
22682;DHT22;11508;50.856;4.380;2023-03-09T11:49:18;10.40;99.90
22682;DHT22;11508;50.856;4.380;2023-03-09T11:51:50;10.30;99.90
22682;DHT22;11508;50.856;4.380;2023-03-09T11:56:50;10.50;99.90
22682;DHT22;11508;50.856;4.380;2023-03-09T11:59:21;10.60;99.90
22682;DHT22;11508;50.856;4.380;2023-03-09T12:01:59;10.80;99.90
22682;DHT22;11508;50.856;4.380;2023-03-09T12:04:27;10.70;99.90
22682;DHT22;11508;50.856;4.380;2023-03-09T12:06:57;10.80;99.90
22682;DHT22;11508;50.856;4.380;2023-03-09T12:09:31;10.70;99.90
22682;DHT22;11508;50.856;4.380;2023-03-09T12:14:52;10.80;99.90
22682;DHT22;11508;50.856;4.380;2023-03-09T12:17:23;10.90;99.90
22682;DHT22;11508;50.856;4.380;2023-03-09T12:19:53;11.00;99.90
22682;DHT22;11508;50.856;4.380;2023-03-09T12:22:31;11.20;99.90
22682;DHT22;11508;50.856;4.380;2023-03-09T12:25:00;11.20;99.90
22682;DHT22;11508;50.856;4.380;2023-03-09T12:27:28;11.30;99.90
22682;DHT22;11508;50.856;4.380;2023-03-09T12:32:48;11.70;99.90
22682;DHT22;11508;50.856;4.380;2023-03-09T12:42:57;12.10;99.90
22682;DHT22;11508;50.856;4.380;2023-03-09T12:45:46;12.20;99.90
22682;DHT22;11508;50.856;4.380;2023-03-09T12:48:31;12.20;99.90
22682;DHT22;11508;50.856;4.380;2023-03-09T12:53:28;12.60;99.90
22682;DHT22;11508;50.856;4.380;2023-03-09T12:56:02;12.80;99.90
22682;DHT22;11508;50.856;4.380;2023-03-09T12:58:42;13.10;99.90
22682;DHT22;11508;50.856;4.380;2023-03-09T13:01:11;13.50;99.90
22682;DHT22;11508;50.856;4.380;2023-03-09T13:06:33;13.30;99.90
22682;DHT22;11508;50.856;4.380;2023-03-09T13:09:04;13.40;99.90
22682;DHT22;11508;50.856;4.380;2023-03-09T13:27:12;13.60;11.40
22682;DHT22;11508;50.856;4.380;2023-03-09T13:29:51;13.60;12.50
22682;DHT22;11508;50.856;4.380;2023-03-09T13:32:33;13.60;10.40
22682;DHT22;11508;50.856;4.380;2023-03-09T13:35:03;13.50;3.00
22682;DHT22;11508;50.856;4.380;2023-03-09T13:37:39;13.40;1.00
22682;DHT22;11508;50.856;4.380;2023-03-09T13:42:55;13.40;1.00
22682;DHT22;11508;50.856;4.380;2023-03-09T13:45:32;13.40;1.00
22682;DHT22;11508;50.856;4.380;2023-03-09T13:48:01;13.40;1.00
22682;DHT22;11508;50.856;4.380;2023-03-09T13:50:33;13.40;1.00
22682;DHT22;11508;50.856;4.380;2023-03-09T13:53:02;13.40;1.00
22682;DHT22;11508;50.856;4.380;2023-03-09T13:55:29;13.40;1.00
22682;DHT22;11508;50.856;4.380;2023-03-09T13:58:15;13.30;1.00
22682;DHT22;11508;50.856;4.380;2023-03-09T14:00:55;13.20;1.00
22682;DHT22;11508;50.856;4.380;2023-03-09T14:03:23;13.20;1.00
22682;DHT22;11508;50.856;4.380;2023-03-09T14:05:59;13.20;1.00
22682;DHT22;11508;50.856;4.380;2023-03-09T14:08:25;13.10;1.00
22682;DHT22;11508;50.856;4.380;2023-03-09T14:10:52;13.10;1.00
22682;DHT22;11508;50.856;4.380;2023-03-09T14:13:20;13.10;1.00
22682;DHT22;11508;50.856;4.380;2023-03-09T14:16:02;13.00;1.00
22682;DHT22;11508;50.856;4.380;2023-03-09T14:18:49;13.00;1.00
22682;DHT22;11508;50.856;4.380;2023-03-09T14:21:31;13.00;1.00
22682;DHT22;11508;50.856;4.380;2023-03-09T14:26:42;13.00;1.00
22682;DHT22;11508;50.856;4.380;2023-03-09T14:31:40;12.80;1.00
22682;DHT22;11508;50.856;4.380;2023-03-09T14:34:21;12.80;1.00
22682;DHT22;11508;50.856;4.380;2023-03-09T14:36:50;12.90;1.00
22682;DHT22;11508;50.856;4.380;2023-03-09T14:39:34;13.10;1.00
22682;DHT22;11508;50.856;4.380;2023-03-09T14:44:37;13.00;1.00
22682;DHT22;11508;50.856;4.380;2023-03-09T14:47:12;13.10;1.00
22682;DHT22;11508;50.856;4.380;2023-03-09T14:49:40;13.30;1.00
22682;DHT22;11508;50.856;4.380;2023-03-09T14:52:10;13.40;1.00
22682;DHT22;11508;50.856;4.380;2023-03-09T14:54:36;13.40;1.00
22682;DHT22;11508;50.856;4.380;2023-03-09T14:57:03;13.50;1.00
22682;DHT22;11508;50.856;4.380;2023-03-09T14:59:29;13.50;1.00
22682;DHT22;11508;50.856;4.380;2023-03-09T15:01:57;13.50;1.00
22682;DHT22;11508;50.856;4.380;2023-03-09T15:04:25;13.60;1.00
22682;DHT22;11508;50.856;4.380;2023-03-09T15:06:51;13.60;1.00
22682;DHT22;11508;50.856;4.380;2023-03-09T15:09:18;13.60;1.00
22682;DHT22;11508;50.856;4.380;2023-03-09T15:11:47;13.70;1.00
22682;DHT22;11508;50.856;4.380;2023-03-09T15:16:47;13.70;1.00
22682;DHT22;11508;50.856;4.380;2023-03-09T15:19:19;13.70;1.00
22682;DHT22;11508;50.856;4.380;2023-03-09T15:21:45;13.60;1.00
22682;DHT22;11508;50.856;4.380;2023-03-09T15:24:11;13.70;1.00
22682;DHT22;11508;50.856;4.380;2023-03-09T15:26:37;13.70;1.00
22682;DHT22;11508;50.856;4.380;2023-03-09T15:29:03;13.70;1.00
22682;DHT22;11508;50.856;4.380;2023-03-09T15:31:29;13.80;1.00
22682;DHT22;11508;50.856;4.380;2023-03-09T15:33:56;13.70;1.00
22682;DHT22;11508;50.856;4.380;2023-03-09T15:36:22;13.80;1.00
22682;DHT22;11508;50.856;4.380;2023-03-09T15:38:48;13.80;1.00
22682;DHT22;11508;50.856;4.380;2023-03-09T15:41:14;13.80;1.00
22682;DHT22;11508;50.856;4.380;2023-03-09T15:43:41;13.80;1.00
22682;DHT22;11508;50.856;4.380;2023-03-09T15:46:07;13.70;1.00
22682;DHT22;11508;50.856;4.380;2023-03-09T15:48:33;13.70;1.00
22682;DHT22;11508;50.856;4.380;2023-03-09T15:50:59;13.50;1.00
22682;DHT22;11508;50.856;4.380;2023-03-09T15:53:26;13.60;1.00
22682;DHT22;11508;50.856;4.380;2023-03-09T15:56:05;13.50;1.00
22682;DHT22;11508;50.856;4.380;2023-03-09T15:58:31;13.50;1.00
22682;DHT22;11508;50.856;4.380;2023-03-09T16:01:22;13.40;1.00
22682;DHT22;11508;50.856;4.380;2023-03-09T16:03:49;13.30;1.00
22682;DHT22;11508;50.856;4.380;2023-03-09T16:06:16;13.20;1.00
22682;DHT22;11508;50.856;4.380;2023-03-09T16:08:42;13.20;1.00
22682;DHT22;11508;50.856;4.380;2023-03-09T16:11:08;13.30;1.00
22682;DHT22;11508;50.856;4.380;2023-03-09T16:13:35;13.20;1.00
22682;DHT22;11508;50.856;4.380;2023-03-09T16:16:01;13.20;1.00
22682;DHT22;11508;50.856;4.380;2023-03-09T16:18:27;13.20;1.00
22682;DHT22;11508;50.856;4.380;2023-03-09T16:20:52;13.20;1.00
22682;DHT22;11508;50.856;4.380;2023-03-09T16:23:18;13.10;1.00
22682;DHT22;11508;50.856;4.380;2023-03-09T16:25:53;12.90;1.00
22682;DHT22;11508;50.856;4.380;2023-03-09T16:28:20;12.90;1.00
22682;DHT22;11508;50.856;4.380;2023-03-09T16:30:47;12.90;4.00
22682;DHT22;11508;50.856;4.380;2023-03-09T16:33:13;12.80;11.50
22682;DHT22;11508;50.856;4.380;2023-03-09T16:35:39;12.70;21.60
22682;DHT22;11508;50.856;4.380;2023-03-09T16:38:05;12.70;30.30
22682;DHT22;11508;50.856;4.380;2023-03-09T16:40:31;12.60;36.90
22682;DHT22;11508;50.856;4.380;2023-03-09T16:43:00;12.60;42.20
22682;DHT22;11508;50.856;4.380;2023-03-09T16:45:26;12.50;52.50
22682;DHT22;11508;50.856;4.380;2023-03-09T16:47:52;12.40;62.30
22682;DHT22;11508;50.856;4.380;2023-03-09T16:50:20;12.40;66.60
22682;DHT22;11508;50.856;4.380;2023-03-09T16:52:48;12.40;66.40
22682;DHT22;11508;50.856;4.380;2023-03-09T16:55:19;12.40;66.00
22682;DHT22;11508;50.856;4.380;2023-03-09T16:57:49;12.40;66.50
22682;DHT22;11508;50.856;4.380;2023-03-09T17:00:16;12.30;70.10
22682;DHT22;11508;50.856;4.380;2023-03-09T17:02:43;12.40;63.70
22682;DHT22;11508;50.856;4.380;2023-03-09T17:05:11;12.30;67.80
22682;DHT22;11508;50.856;4.380;2023-03-09T17:07:38;12.30;63.10
22682;DHT22;11508;50.856;4.380;2023-03-09T17:10:11;12.40;66.40
22682;DHT22;11508;50.856;4.380;2023-03-09T17:12:38;12.40;64.10
22682;DHT22;11508;50.856;4.380;2023-03-09T17:15:04;12.30;69.70
22682;DHT22;11508;50.856;4.380;2023-03-09T17:17:30;12.30;72.90